Nast, Colorado
Current Conditions -  °F | °C
As of 9:53 AM on Wednesday 26 Nov 2014 (Local Time) from KLXV Reporting Station
Haze Haze  
Wind Chill: 14°   Ceiling: 3300
Heat Index: 27°   Visibility: 6mi
Dew Point: 22°   Wind: 17mph
Humidity: 81%   Direction: 310°NW
Pressure: 30.34"   Gusts: 29mph
Location:  39.3236°N, 106.55°W
Report Text: KLXV 261653Z AUTO 31015G25KT 6SM HZ OVC033 M03/M06 A3034 RMK AO2 SNB21E37 SLP245 P0000 T10281056
Loading
Personal Weather Stations






























Interactive Weather Map New forecast layout! Learn more

10-Day Weather Forecast

Advertisements
Track Severe Weather on mobile